sensor_id;sensor_type;location;lat;lon;timestamp;temperature;humidity
14053;DHT22;7101;51.600;7.310;2022-08-03T00:01:40;19.60;99.90
14053;DHT22;7101;51.600;7.310;2022-08-03T00:04:08;19.50;99.90
14053;DHT22;7101;51.600;7.310;2022-08-03T00:06:35;19.50;99.90
14053;DHT22;7101;51.600;7.310;2022-08-03T00:09:03;19.50;99.90
14053;DHT22;7101;51.600;7.310;2022-08-03T00:11:32;19.40;99.90
14053;DHT22;7101;51.600;7.310;2022-08-03T00:13:59;19.40;99.90
14053;DHT22;7101;51.600;7.310;2022-08-03T00:16:26;19.40;99.90
14053;DHT22;7101;51.600;7.310;2022-08-03T00:18:53;19.30;99.90
14053;DHT22;7101;51.600;7.310;2022-08-03T00:21:20;19.30;99.90
14053;DHT22;7101;51.600;7.310;2022-08-03T00:23:47;19.30;99.90
14053;DHT22;7101;51.600;7.310;2022-08-03T00:26:14;19.30;99.90
14053;DHT22;7101;51.600;7.310;2022-08-03T00:28:42;19.30;99.90
14053;DHT22;7101;51.600;7.310;2022-08-03T00:31:09;19.30;99.90
14053;DHT22;7101;51.600;7.310;2022-08-03T00:33:35;19.20;99.90
14053;DHT22;7101;51.600;7.310;2022-08-03T00:36:02;19.10;99.90
14053;DHT22;7101;51.600;7.310;2022-08-03T00:38:29;19.10;99.90
14053;DHT22;7101;51.600;7.310;2022-08-03T00:40:56;19.00;99.90
14053;DHT22;7101;51.600;7.310;2022-08-03T00:43:24;19.00;99.90
14053;DHT22;7101;51.600;7.310;2022-08-03T00:45:53;19.00;99.90
14053;DHT22;7101;51.600;7.310;2022-08-03T00:48:21;19.00;99.90
14053;DHT22;7101;51.600;7.310;2022-08-03T00:50:49;19.00;99.90
14053;DHT22;7101;51.600;7.310;2022-08-03T00:53:17;19.00;99.90
14053;DHT22;7101;51.600;7.310;2022-08-03T00:55:44;19.10;99.90
14053;DHT22;7101;51.600;7.310;2022-08-03T00:58:12;19.00;99.90
14053;DHT22;7101;51.600;7.310;2022-08-03T01:00:39;19.00;99.90
14053;DHT22;7101;51.600;7.310;2022-08-03T01:03:08;18.90;99.90
14053;DHT22;7101;51.600;7.310;2022-08-03T01:05:42;18.90;99.90
14053;DHT22;7101;51.600;7.310;2022-08-03T01:08:17;18.80;99.90
14053;DHT22;7101;51.600;7.310;2022-08-03T01:10:50;18.80;99.90
14053;DHT22;7101;51.600;7.310;2022-08-03T01:13:23;18.80;99.90
14053;DHT22;7101;51.600;7.310;2022-08-03T01:15:57;18.80;99.90
14053;DHT22;7101;51.600;7.310;2022-08-03T01:18:31;18.70;99.90
14053;DHT22;7101;51.600;7.310;2022-08-03T01:21:02;18.80;99.90
14053;DHT22;7101;51.600;7.310;2022-08-03T01:23:51;18.80;99.90
14053;DHT22;7101;51.600;7.310;2022-08-03T01:26:39;18.70;99.90
14053;DHT22;7101;51.600;7.310;2022-08-03T01:31:57;18.60;99.90
14053;DHT22;7101;51.600;7.310;2022-08-03T01:34:30;18.50;99.90
14053;DHT22;7101;51.600;7.310;2022-08-03T01:36:59;18.60;99.90
14053;DHT22;7101;51.600;7.310;2022-08-03T01:39:30;18.60;99.90
14053;DHT22;7101;51.600;7.310;2022-08-03T01:42:01;18.60;99.90
14053;DHT22;7101;51.600;7.310;2022-08-03T01:44:34;18.50;99.90
14053;DHT22;7101;51.600;7.310;2022-08-03T01:47:04;18.40;99.90
14053;DHT22;7101;51.600;7.310;2022-08-03T01:49:36;18.40;99.90
14053;DHT22;7101;51.600;7.310;2022-08-03T01:52:05;18.40;99.90
14053;DHT22;7101;51.600;7.310;2022-08-03T01:54:35;18.40;99.90
14053;DHT22;7101;51.600;7.310;2022-08-03T01:57:04;18.40;99.90
14053;DHT22;7101;51.600;7.310;2022-08-03T01:59:33;18.50;99.90
14053;DHT22;7101;51.600;7.310;2022-08-03T02:02:02;18.40;99.90
14053;DHT22;7101;51.600;7.310;2022-08-03T02:04:29;18.40;99.90
14053;DHT22;7101;51.600;7.310;2022-08-03T02:06:57;18.30;99.90
14053;DHT22;7101;51.600;7.310;2022-08-03T02:09:25;18.30;99.90
14053;DHT22;7101;51.600;7.310;2022-08-03T02:11:53;18.30;99.90
14053;DHT22;7101;51.600;7.310;2022-08-03T02:14:22;18.30;99.90
14053;DHT22;7101;51.600;7.310;2022-08-03T02:16:49;18.20;99.90
14053;DHT22;7101;51.600;7.310;2022-08-03T02:19:18;18.20;99.90
14053;DHT22;7101;51.600;7.310;2022-08-03T02:21:46;18.20;99.90
14053;DHT22;7101;51.600;7.310;2022-08-03T02:24:13;18.20;99.90
14053;DHT22;7101;51.600;7.310;2022-08-03T02:26:40;18.10;99.90
14053;DHT22;7101;51.600;7.310;2022-08-03T02:29:12;18.20;99.90
14053;DHT22;7101;51.600;7.310;2022-08-03T02:31:41;18.20;99.90
14053;DHT22;7101;51.600;7.310;2022-08-03T02:34:13;18.10;99.90
14053;DHT22;7101;51.600;7.310;2022-08-03T02:36:46;18.00;99.90
14053;DHT22;7101;51.600;7.310;2022-08-03T02:39:18;18.00;99.90
14053;DHT22;7101;51.600;7.310;2022-08-03T02:41:47;17.90;99.90
14053;DHT22;7101;51.600;7.310;2022-08-03T02:44:17;18.00;99.90
14053;DHT22;7101;51.600;7.310;2022-08-03T02:46:45;18.10;99.90
14053;DHT22;7101;51.600;7.310;2022-08-03T02:49:16;18.10;99.90
14053;DHT22;7101;51.600;7.310;2022-08-03T02:51:46;18.10;99.90
14053;DHT22;7101;51.600;7.310;2022-08-03T02:54:16;18.10;99.90
14053;DHT22;7101;51.600;7.310;2022-08-03T02:56:44;18.00;99.90
14053;DHT22;7101;51.600;7.310;2022-08-03T02:59:12;18.00;99.90
14053;DHT22;7101;51.600;7.310;2022-08-03T03:01:39;17.90;99.90
14053;DHT22;7101;51.600;7.310;2022-08-03T03:04:07;17.90;99.90
14053;DHT22;7101;51.600;7.310;2022-08-03T03:06:35;17.90;99.90
14053;DHT22;7101;51.600;7.310;2022-08-03T03:09:04;17.90;99.90
14053;DHT22;7101;51.600;7.310;2022-08-03T03:11:33;17.80;99.90
14053;DHT22;7101;51.600;7.310;2022-08-03T03:14:01;17.80;99.90
14053;DHT22;7101;51.600;7.310;2022-08-03T03:16:29;17.80;99.90
14053;DHT22;7101;51.600;7.310;2022-08-03T03:18:57;17.80;99.90
14053;DHT22;7101;51.600;7.310;2022-08-03T03:21:24;17.80;99.90
14053;DHT22;7101;51.600;7.310;2022-08-03T03:23:52;17.80;99.90
14053;DHT22;7101;51.600;7.310;2022-08-03T03:26:20;17.80;99.90
14053;DHT22;7101;51.600;7.310;2022-08-03T03:28:47;17.70;99.90
14053;DHT22;7101;51.600;7.310;2022-08-03T03:31:14;17.80;99.90
14053;DHT22;7101;51.600;7.310;2022-08-03T03:33:41;17.80;99.90
14053;DHT22;7101;51.600;7.310;2022-08-03T03:36:09;17.70;99.90
14053;DHT22;7101;51.600;7.310;2022-08-03T03:38:36;17.60;99.90
14053;DHT22;7101;51.600;7.310;2022-08-03T03:41:04;17.70;99.90
14053;DHT22;7101;51.600;7.310;2022-08-03T03:43:34;17.70;99.90
14053;DHT22;7101;51.600;7.310;2022-08-03T03:46:01;17.70;99.90
14053;DHT22;7101;51.600;7.310;2022-08-03T03:48:28;17.70;99.90
14053;DHT22;7101;51.600;7.310;2022-08-03T03:50:55;17.70;99.90
14053;DHT22;7101;51.600;7.310;2022-08-03T03:53:22;17.60;99.90
14053;DHT22;7101;51.600;7.310;2022-08-03T03:55:51;17.60;99.90
14053;DHT22;7101;51.600;7.310;2022-08-03T03:58:19;17.60;99.90
14053;DHT22;7101;51.600;7.310;2022-08-03T04:00:47;17.60;99.90
14053;DHT22;7101;51.600;7.310;2022-08-03T04:03:14;17.70;99.90
14053;DHT22;7101;51.600;7.310;2022-08-03T04:05:41;17.60;99.90
14053;DHT22;7101;51.600;7.310;2022-08-03T04:08:26;17.70;99.90
14053;DHT22;7101;51.600;7.310;2022-08-03T04:11:13;17.70;99.90
14053;DHT22;7101;51.600;7.310;2022-08-03T04:13:46;17.80;99.90
14053;DHT22;7101;51.600;7.310;2022-08-03T04:16:17;17.80;99.90
14053;DHT22;7101;51.600;7.310;2022-08-03T04:18:50;17.80;99.90
14053;DHT22;7101;51.600;7.310;2022-08-03T04:21:18;17.80;99.90
14053;DHT22;7101;51.600;7.310;2022-08-03T04:23:50;18.00;99.90
14053;DHT22;7101;51.600;7.310;2022-08-03T04:26:19;18.10;99.90
14053;DHT22;7101;51.600;7.310;2022-08-03T04:28:47;18.50;99.90
14053;DHT22;7101;51.600;7.310;2022-08-03T04:31:19;18.90;99.90
14053;DHT22;7101;51.600;7.310;2022-08-03T04:33:47;19.20;99.90
14053;DHT22;7101;51.600;7.310;2022-08-03T04:36:18;19.10;99.90
14053;DHT22;7101;51.600;7.310;2022-08-03T04:38:54;19.00;99.90
14053;DHT22;7101;51.600;7.310;2022-08-03T04:41:24;18.90;99.90
14053;DHT22;7101;51.600;7.310;2022-08-03T04:43:53;19.40;99.90
14053;DHT22;7101;51.600;7.310;2022-08-03T04:46:25;20.60;99.90
14053;DHT22;7101;51.600;7.310;2022-08-03T04:48:54;21.90;99.90
14053;DHT22;7101;51.600;7.310;2022-08-03T04:51:21;23.10;99.90
14053;DHT22;7101;51.600;7.310;2022-08-03T04:53:48;24.20;99.90
14053;DHT22;7101;51.600;7.310;2022-08-03T04:56:15;25.20;99.90
14053;DHT22;7101;51.600;7.310;2022-08-03T04:58:43;25.80;99.90
14053;DHT22;7101;51.600;7.310;2022-08-03T05:01:09;26.50;99.90
14053;DHT22;7101;51.600;7.310;2022-08-03T05:03:38;26.70;99.90
14053;DHT22;7101;51.600;7.310;2022-08-03T05:06:05;27.20;99.90
14053;DHT22;7101;51.600;7.310;2022-08-03T05:08:31;27.80;99.90
14053;DHT22;7101;51.600;7.310;2022-08-03T05:10:58;27.70;99.90
14053;DHT22;7101;51.600;7.310;2022-08-03T05:13:25;27.30;99.90
14053;DHT22;7101;51.600;7.310;2022-08-03T05:15:52;28.10;99.90
14053;DHT22;7101;51.600;7.310;2022-08-03T05:18:20;28.30;99.90
14053;DHT22;7101;51.600;7.310;2022-08-03T05:20:48;29.30;99.90
14053;DHT22;7101;51.600;7.310;2022-08-03T05:23:15;30.00;99.90
14053;DHT22;7101;51.600;7.310;2022-08-03T05:25:41;30.40;98.90
14053;DHT22;7101;51.600;7.310;2022-08-03T05:28:08;30.70;95.80
14053;DHT22;7101;51.600;7.310;2022-08-03T05:30:36;30.50;94.00
14053;DHT22;7101;51.600;7.310;2022-08-03T05:33:03;30.20;94.80
14053;DHT22;7101;51.600;7.310;2022-08-03T05:35:30;30.20;95.10
14053;DHT22;7101;51.600;7.310;2022-08-03T05:37:58;30.00;95.20
14053;DHT22;7101;51.600;7.310;2022-08-03T05:40:25;30.70;93.30
14053;DHT22;7101;51.600;7.310;2022-08-03T05:42:52;31.40;92.00
14053;DHT22;7101;51.600;7.310;2022-08-03T05:45:19;31.70;91.00
14053;DHT22;7101;51.600;7.310;2022-08-03T05:47:46;31.90;90.50
14053;DHT22;7101;51.600;7.310;2022-08-03T05:50:15;32.00;90.00
14053;DHT22;7101;51.600;7.310;2022-08-03T05:52:42;32.30;86.10
14053;DHT22;7101;51.600;7.310;2022-08-03T05:55:11;31.90;87.50
14053;DHT22;7101;51.600;7.310;2022-08-03T05:57:38;32.00;89.20
14053;DHT22;7101;51.600;7.310;2022-08-03T06:00:07;32.70;85.90
14053;DHT22;7101;51.600;7.310;2022-08-03T06:02:34;33.40;83.90
14053;DHT22;7101;51.600;7.310;2022-08-03T06:05:01;34.10;79.30
14053;DHT22;7101;51.600;7.310;2022-08-03T06:07:29;34.40;75.10
14053;DHT22;7101;51.600;7.310;2022-08-03T06:09:55;34.40;76.10
14053;DHT22;7101;51.600;7.310;2022-08-03T06:12:24;34.10;75.00
14053;DHT22;7101;51.600;7.310;2022-08-03T06:14:51;34.10;75.50
14053;DHT22;7101;51.600;7.310;2022-08-03T06:17:17;34.10;74.60
14053;DHT22;7101;51.600;7.310;2022-08-03T06:19:44;34.60;74.20
14053;DHT22;7101;51.600;7.310;2022-08-03T06:22:11;34.60;73.30
14053;DHT22;7101;51.600;7.310;2022-08-03T06:24:38;33.80;71.50
14053;DHT22;7101;51.600;7.310;2022-08-03T06:27:05;33.10;75.50
14053;DHT22;7101;51.600;7.310;2022-08-03T06:29:33;33.40;75.40
14053;DHT22;7101;51.600;7.310;2022-08-03T06:32:00;34.20;73.50
14053;DHT22;7101;51.600;7.310;2022-08-03T06:34:27;34.50;71.20
14053;DHT22;7101;51.600;7.310;2022-08-03T06:36:54;35.00;71.60
14053;DHT22;7101;51.600;7.310;2022-08-03T06:39:21;35.50;68.20
14053;DHT22;7101;51.600;7.310;2022-08-03T06:41:47;35.90;65.30
14053;DHT22;7101;51.600;7.310;2022-08-03T06:44:14;35.30;66.60
14053;DHT22;7101;51.600;7.310;2022-08-03T06:46:42;35.50;66.10
14053;DHT22;7101;51.600;7.310;2022-08-03T06:49:09;35.20;66.10
14053;DHT22;7101;51.600;7.310;2022-08-03T06:51:36;35.10;64.90
14053;DHT22;7101;51.600;7.310;2022-08-03T06:54:03;34.70;67.00
14053;DHT22;7101;51.600;7.310;2022-08-03T06:56:29;34.90;68.20
14053;DHT22;7101;51.600;7.310;2022-08-03T06:58:56;34.60;67.90
14053;DHT22;7101;51.600;7.310;2022-08-03T07:01:23;35.50;65.60
14053;DHT22;7101;51.600;7.310;2022-08-03T07:03:51;35.90;65.50
14053;DHT22;7101;51.600;7.310;2022-08-03T07:06:19;35.70;66.90
14053;DHT22;7101;51.600;7.310;2022-08-03T07:08:46;35.70;65.00
14053;DHT22;7101;51.600;7.310;2022-08-03T07:11:12;35.30;64.60
14053;DHT22;7101;51.600;7.310;2022-08-03T07:13:39;35.20;66.60
14053;DHT22;7101;51.600;7.310;2022-08-03T07:16:06;35.10;68.80
14053;DHT22;7101;51.600;7.310;2022-08-03T07:18:35;35.60;65.80
14053;DHT22;7101;51.600;7.310;2022-08-03T07:21:04;35.90;64.70
14053;DHT22;7101;51.600;7.310;2022-08-03T07:23:32;36.10;64.60
14053;DHT22;7101;51.600;7.310;2022-08-03T07:25:59;35.70;65.00
14053;DHT22;7101;51.600;7.310;2022-08-03T07:28:27;36.00;63.00
14053;DHT22;7101;51.600;7.310;2022-08-03T07:30:53;35.60;62.70
14053;DHT22;7101;51.600;7.310;2022-08-03T07:33:20;35.10;65.60
14053;DHT22;7101;51.600;7.310;2022-08-03T07:35:47;34.40;67.60
14053;DHT22;7101;51.600;7.310;2022-08-03T07:38:15;34.10;67.10
14053;DHT22;7101;51.600;7.310;2022-08-03T07:40:42;33.70;70.00
14053;DHT22;7101;51.600;7.310;2022-08-03T07:43:09;32.80;70.90
14053;DHT22;7101;51.600;7.310;2022-08-03T07:45:35;32.30;72.90
14053;DHT22;7101;51.600;7.310;2022-08-03T07:48:02;32.60;72.90
14053;DHT22;7101;51.600;7.310;2022-08-03T07:50:29;32.60;72.70
14053;DHT22;7101;51.600;7.310;2022-08-03T07:52:56;33.00;72.70
14053;DHT22;7101;51.600;7.310;2022-08-03T07:55:25;34.10;73.30
14053;DHT22;7101;51.600;7.310;2022-08-03T07:58:05;34.30;70.90
14053;DHT22;7101;51.600;7.310;2022-08-03T08:00:32;35.00;70.10
14053;DHT22;7101;51.600;7.310;2022-08-03T08:02:59;34.80;68.00
14053;DHT22;7101;51.600;7.310;2022-08-03T08:05:26;35.40;66.80
14053;DHT22;7101;51.600;7.310;2022-08-03T08:07:54;35.50;63.80
14053;DHT22;7101;51.600;7.310;2022-08-03T08:10:21;35.80;65.10
14053;DHT22;7101;51.600;7.310;2022-08-03T08:12:49;35.40;65.00
14053;DHT22;7101;51.600;7.310;2022-08-03T08:15:16;36.20;64.00
14053;DHT22;7101;51.600;7.310;2022-08-03T08:17:44;36.00;63.40
14053;DHT22;7101;51.600;7.310;2022-08-03T08:20:15;35.90;64.10
14053;DHT22;7101;51.600;7.310;2022-08-03T08:22:42;35.80;63.20
14053;DHT22;7101;51.600;7.310;2022-08-03T08:25:09;36.10;65.40
14053;DHT22;7101;51.600;7.310;2022-08-03T08:27:41;36.60;62.80
14053;DHT22;7101;51.600;7.310;2022-08-03T08:30:11;36.50;61.20
14053;DHT22;7101;51.600;7.310;2022-08-03T08:32:38;36.80;61.00
14053;DHT22;7101;51.600;7.310;2022-08-03T08:35:06;36.30;62.00
14053;DHT22;7101;51.600;7.310;2022-08-03T08:37:33;36.50;62.10
14053;DHT22;7101;51.600;7.310;2022-08-03T08:40:00;36.40;62.70
14053;DHT22;7101;51.600;7.310;2022-08-03T08:42:27;36.50;62.20
14053;DHT22;7101;51.600;7.310;2022-08-03T08:44:54;36.80;59.20
14053;DHT22;7101;51.600;7.310;2022-08-03T08:47:24;37.00;58.90
14053;DHT22;7101;51.600;7.310;2022-08-03T08:49:52;37.20;59.20
14053;DHT22;7101;51.600;7.310;2022-08-03T08:52:23;37.40;59.00
14053;DHT22;7101;51.600;7.310;2022-08-03T08:54:51;36.50;60.50
14053;DHT22;7101;51.600;7.310;2022-08-03T08:57:21;36.10;60.90
14053;DHT22;7101;51.600;7.310;2022-08-03T08:59:50;35.90;60.30
14053;DHT22;7101;51.600;7.310;2022-08-03T09:02:19;35.70;59.90
14053;DHT22;7101;51.600;7.310;2022-08-03T09:04:47;35.30;60.90
14053;DHT22;7101;51.600;7.310;2022-08-03T09:07:15;35.20;62.50
14053;DHT22;7101;51.600;7.310;2022-08-03T09:09:42;35.20;60.30
14053;DHT22;7101;51.600;7.310;2022-08-03T09:12:09;35.20;62.40
14053;DHT22;7101;51.600;7.310;2022-08-03T09:14:36;34.90;62.30
14053;DHT22;7101;51.600;7.310;2022-08-03T09:17:03;34.70;63.00
14053;DHT22;7101;51.600;7.310;2022-08-03T09:19:31;34.80;62.10
14053;DHT22;7101;51.600;7.310;2022-08-03T09:22:10;34.20;61.30
14053;DHT22;7101;51.600;7.310;2022-08-03T09:24:52;33.10;62.70
14053;DHT22;7101;51.600;7.310;2022-08-03T09:27:21;32.80;67.00
14053;DHT22;7101;51.600;7.310;2022-08-03T09:29:48;33.30;67.70
14053;DHT22;7101;51.600;7.310;2022-08-03T09:32:19;33.70;62.90
14053;DHT22;7101;51.600;7.310;2022-08-03T09:34:46;33.30;64.20
14053;DHT22;7101;51.600;7.310;2022-08-03T09:37:15;33.30;65.00
14053;DHT22;7101;51.600;7.310;2022-08-03T09:39:43;33.00;65.00
14053;DHT22;7101;51.600;7.310;2022-08-03T09:42:11;33.40;65.20
14053;DHT22;7101;51.600;7.310;2022-08-03T09:44:40;33.20;65.60
14053;DHT22;7101;51.600;7.310;2022-08-03T09:47:07;33.40;63.90
14053;DHT22;7101;51.600;7.310;2022-08-03T09:49:35;33.20;62.90
14053;DHT22;7101;51.600;7.310;2022-08-03T09:52:11;32.90;65.80
14053;DHT22;7101;51.600;7.310;2022-08-03T09:54:41;32.90;65.90
14053;DHT22;7101;51.600;7.310;2022-08-03T09:57:19;33.20;66.50
14053;DHT22;7101;51.600;7.310;2022-08-03T09:59:47;33.70;64.00
14053;DHT22;7101;51.600;7.310;2022-08-03T10:02:22;33.60;66.80
14053;DHT22;7101;51.600;7.310;2022-08-03T10:04:49;33.70;62.10
14053;DHT22;7101;51.600;7.310;2022-08-03T10:07:19;33.80;62.30
14053;DHT22;7101;51.600;7.310;2022-08-03T10:09:55;33.30;64.20
14053;DHT22;7101;51.600;7.310;2022-08-03T10:12:22;33.10;64.50
14053;DHT22;7101;51.600;7.310;2022-08-03T10:14:49;32.90;64.50
14053;DHT22;7101;51.600;7.310;2022-08-03T10:17:17;32.70;63.80
14053;DHT22;7101;51.600;7.310;2022-08-03T10:19:44;32.60;64.70
14053;DHT22;7101;51.600;7.310;2022-08-03T10:22:12;32.70;64.70
14053;DHT22;7101;51.600;7.310;2022-08-03T10:24:47;32.90;66.00
14053;DHT22;7101;51.600;7.310;2022-08-03T10:27:18;33.30;65.00
14053;DHT22;7101;51.600;7.310;2022-08-03T10:29:49;33.50;67.40
14053;DHT22;7101;51.600;7.310;2022-08-03T10:32:20;33.30;65.40
14053;DHT22;7101;51.600;7.310;2022-08-03T10:34:49;33.10;64.20
14053;DHT22;7101;51.600;7.310;2022-08-03T10:37:17;33.10;65.20
14053;DHT22;7101;51.600;7.310;2022-08-03T10:39:44;33.20;65.60
14053;DHT22;7101;51.600;7.310;2022-08-03T10:42:22;33.40;63.00
14053;DHT22;7101;51.600;7.310;2022-08-03T10:44:54;33.40;64.10
14053;DHT22;7101;51.600;7.310;2022-08-03T10:47:26;33.40;63.90
14053;DHT22;7101;51.600;7.310;2022-08-03T10:49:53;33.60;64.10
14053;DHT22;7101;51.600;7.310;2022-08-03T10:52:20;33.40;66.30
14053;DHT22;7101;51.600;7.310;2022-08-03T10:54:46;33.30;63.80
14053;DHT22;7101;51.600;7.310;2022-08-03T10:57:47;33.40;62.60
14053;DHT22;7101;51.600;7.310;2022-08-03T11:00:15;33.40;62.90
14053;DHT22;7101;51.600;7.310;2022-08-03T11:03:05;33.00;66.10
14053;DHT22;7101;51.600;7.310;2022-08-03T11:05:35;32.80;65.80
14053;DHT22;7101;51.600;7.310;2022-08-03T11:08:27;32.90;66.00
14053;DHT22;7101;51.600;7.310;2022-08-03T11:10:56;32.60;64.10
14053;DHT22;7101;51.600;7.310;2022-08-03T11:13:27;32.70;66.10
14053;DHT22;7101;51.600;7.310;2022-08-03T11:15:57;32.80;63.40
14053;DHT22;7101;51.600;7.310;2022-08-03T11:18:24;33.10;63.30
14053;DHT22;7101;51.600;7.310;2022-08-03T11:20:53;33.00;65.30
14053;DHT22;7101;51.600;7.310;2022-08-03T11:23:42;32.80;61.20
14053;DHT22;7101;51.600;7.310;2022-08-03T11:26:10;32.90;62.40
14053;DHT22;7101;51.600;7.310;2022-08-03T11:28:40;33.10;61.50
14053;DHT22;7101;51.600;7.310;2022-08-03T11:31:44;33.10;61.20
14053;DHT22;7101;51.600;7.310;2022-08-03T11:34:14;32.90;59.30
14053;DHT22;7101;51.600;7.310;2022-08-03T11:37:21;32.80;61.80
14053;DHT22;7101;51.600;7.310;2022-08-03T11:39:50;32.60;59.80
14053;DHT22;7101;51.600;7.310;2022-08-03T11:42:44;32.70;63.00
14053;DHT22;7101;51.600;7.310;2022-08-03T11:45:13;32.90;60.40
14053;DHT22;7101;51.600;7.310;2022-08-03T11:47:41;33.30;63.80
14053;DHT22;7101;51.600;7.310;2022-08-03T11:50:09;33.40;61.00
14053;DHT22;7101;51.600;7.310;2022-08-03T11:52:38;33.40;62.10
14053;DHT22;7101;51.600;7.310;2022-08-03T11:55:14;33.10;63.30
14053;DHT22;7101;51.600;7.310;2022-08-03T11:57:41;33.00;62.70
14053;DHT22;7101;51.600;7.310;2022-08-03T12:00:26;33.40;63.90
14053;DHT22;7101;51.600;7.310;2022-08-03T12:02:58;33.20;62.40
14053;DHT22;7101;51.600;7.310;2022-08-03T12:05:33;33.10;61.70
14053;DHT22;7101;51.600;7.310;2022-08-03T12:08:00;33.10;62.50
14053;DHT22;7101;51.600;7.310;2022-08-03T12:10:27;32.90;64.50
14053;DHT22;7101;51.600;7.310;2022-08-03T12:12:55;32.90;62.90
14053;DHT22;7101;51.600;7.310;2022-08-03T12:15:26;32.90;61.30
14053;DHT22;7101;51.600;7.310;2022-08-03T12:17:53;32.90;61.30
14053;DHT22;7101;51.600;7.310;2022-08-03T12:20:22;33.20;62.70
14053;DHT22;7101;51.600;7.310;2022-08-03T12:22:49;33.60;63.20
14053;DHT22;7101;51.600;7.310;2022-08-03T12:25:21;33.70;63.70
14053;DHT22;7101;51.600;7.310;2022-08-03T12:27:49;33.30;63.80
14053;DHT22;7101;51.600;7.310;2022-08-03T12:30:16;33.30;60.50
14053;DHT22;7101;51.600;7.310;2022-08-03T12:32:44;33.20;64.60
14053;DHT22;7101;51.600;7.310;2022-08-03T12:35:21;33.30;62.70
14053;DHT22;7101;51.600;7.310;2022-08-03T12:37:49;33.20;62.80
14053;DHT22;7101;51.600;7.310;2022-08-03T12:40:23;33.20;61.80
14053;DHT22;7101;51.600;7.310;2022-08-03T12:42:52;33.20;60.40
14053;DHT22;7101;51.600;7.310;2022-08-03T12:45:20;33.00;63.60
14053;DHT22;7101;51.600;7.310;2022-08-03T12:47:53;33.30;62.80
14053;DHT22;7101;51.600;7.310;2022-08-03T12:50:26;33.60;62.60
14053;DHT22;7101;51.600;7.310;2022-08-03T12:52:54;33.50;61.30
14053;DHT22;7101;51.600;7.310;2022-08-03T12:55:21;33.60;61.00
14053;DHT22;7101;51.600;7.310;2022-08-03T12:57:48;33.60;62.50
14053;DHT22;7101;51.600;7.310;2022-08-03T13:00:17;33.70;64.00
14053;DHT22;7101;51.600;7.310;2022-08-03T13:02:44;33.70;59.90
14053;DHT22;7101;51.600;7.310;2022-08-03T13:05:13;33.60;62.00
14053;DHT22;7101;51.600;7.310;2022-08-03T13:07:41;33.50;62.10
14053;DHT22;7101;51.600;7.310;2022-08-03T13:10:08;33.50;62.20
14053;DHT22;7101;51.600;7.310;2022-08-03T13:12:45;33.60;61.20
14053;DHT22;7101;51.600;7.310;2022-08-03T13:15:12;33.60;60.10
14053;DHT22;7101;51.600;7.310;2022-08-03T13:17:39;33.70;61.70
14053;DHT22;7101;51.600;7.310;2022-08-03T13:20:07;33.50;59.70
14053;DHT22;7101;51.600;7.310;2022-08-03T13:22:35;33.40;61.80
14053;DHT22;7101;51.600;7.310;2022-08-03T13:25:02;33.40;59.50
14053;DHT22;7101;51.600;7.310;2022-08-03T13:27:30;33.50;61.20
14053;DHT22;7101;51.600;7.310;2022-08-03T13:29:57;33.60;60.70
14053;DHT22;7101;51.600;7.310;2022-08-03T13:32:24;33.70;61.00
14053;DHT22;7101;51.600;7.310;2022-08-03T13:34:50;33.70;60.10
14053;DHT22;7101;51.600;7.310;2022-08-03T13:37:17;33.30;60.60
14053;DHT22;7101;51.600;7.310;2022-08-03T13:39:45;33.20;63.00
14053;DHT22;7101;51.600;7.310;2022-08-03T13:42:12;33.40;60.90
14053;DHT22;7101;51.600;7.310;2022-08-03T13:44:39;33.50;61.90
14053;DHT22;7101;51.600;7.310;2022-08-03T13:47:06;33.60;61.50
14053;DHT22;7101;51.600;7.310;2022-08-03T13:49:32;33.70;60.80
14053;DHT22;7101;51.600;7.310;2022-08-03T13:51:59;33.80;59.00
14053;DHT22;7101;51.600;7.310;2022-08-03T13:54:26;34.00;60.60
14053;DHT22;7101;51.600;7.310;2022-08-03T13:56:55;33.70;60.00
14053;DHT22;7101;51.600;7.310;2022-08-03T13:59:25;33.50;59.90
14053;DHT22;7101;51.600;7.310;2022-08-03T14:01:53;33.50;60.20
14053;DHT22;7101;51.600;7.310;2022-08-03T14:04:20;33.20;59.70
14053;DHT22;7101;51.600;7.310;2022-08-03T14:06:47;32.90;61.70
14053;DHT22;7101;51.600;7.310;2022-08-03T14:09:15;33.10;59.90
14053;DHT22;7101;51.600;7.310;2022-08-03T14:11:42;33.10;62.70
14053;DHT22;7101;51.600;7.310;2022-08-03T14:14:11;33.20;61.60
14053;DHT22;7101;51.600;7.310;2022-08-03T14:16:38;33.30;61.10
14053;DHT22;7101;51.600;7.310;2022-08-03T14:19:05;33.40;61.30
14053;DHT22;7101;51.600;7.310;2022-08-03T14:21:32;33.60;59.80
14053;DHT22;7101;51.600;7.310;2022-08-03T14:23:58;33.60;59.00
14053;DHT22;7101;51.600;7.310;2022-08-03T14:26:25;33.70;60.70
14053;DHT22;7101;51.600;7.310;2022-08-03T14:28:52;33.60;59.50
14053;DHT22;7101;51.600;7.310;2022-08-03T14:31:20;33.50;60.20
14053;DHT22;7101;51.600;7.310;2022-08-03T14:33:48;33.70;59.60
14053;DHT22;7101;51.600;7.310;2022-08-03T14:36:15;33.80;60.20
14053;DHT22;7101;51.600;7.310;2022-08-03T14:38:42;33.90;59.70
14053;DHT22;7101;51.600;7.310;2022-08-03T14:41:08;33.70;61.00
14053;DHT22;7101;51.600;7.310;2022-08-03T14:43:35;33.60;59.60
14053;DHT22;7101;51.600;7.310;2022-08-03T14:46:02;33.30;60.60
14053;DHT22;7101;51.600;7.310;2022-08-03T14:48:31;33.20;61.60
14053;DHT22;7101;51.600;7.310;2022-08-03T14:50:57;33.10;59.70
14053;DHT22;7101;51.600;7.310;2022-08-03T14:53:24;32.90;61.50
14053;DHT22;7101;51.600;7.310;2022-08-03T14:55:53;32.90;60.30
14053;DHT22;7101;51.600;7.310;2022-08-03T14:58:21;33.20;61.10
14053;DHT22;7101;51.600;7.310;2022-08-03T15:00:49;33.50;62.00
14053;DHT22;7101;51.600;7.310;2022-08-03T15:03:16;33.80;59.80
14053;DHT22;7101;51.600;7.310;2022-08-03T15:05:47;33.60;59.30
14053;DHT22;7101;51.600;7.310;2022-08-03T15:08:14;33.40;59.80
14053;DHT22;7101;51.600;7.310;2022-08-03T15:10:41;33.20;60.60
14053;DHT22;7101;51.600;7.310;2022-08-03T15:13:08;33.40;59.10
14053;DHT22;7101;51.600;7.310;2022-08-03T15:15:35;33.00;59.40
14053;DHT22;7101;51.600;7.310;2022-08-03T15:18:01;32.90;61.80
14053;DHT22;7101;51.600;7.310;2022-08-03T15:20:28;32.90;61.40
14053;DHT22;7101;51.600;7.310;2022-08-03T15:22:56;33.20;60.10
14053;DHT22;7101;51.600;7.310;2022-08-03T15:25:23;32.90;59.20
14053;DHT22;7101;51.600;7.310;2022-08-03T15:27:50;32.70;60.00
14053;DHT22;7101;51.600;7.310;2022-08-03T15:30:17;33.00;61.70
14053;DHT22;7101;51.600;7.310;2022-08-03T15:32:44;33.30;59.60
14053;DHT22;7101;51.600;7.310;2022-08-03T15:35:11;33.60;59.00
14053;DHT22;7101;51.600;7.310;2022-08-03T15:37:38;33.90;58.00
14053;DHT22;7101;51.600;7.310;2022-08-03T15:40:07;33.80;58.80
14053;DHT22;7101;51.600;7.310;2022-08-03T15:42:34;33.80;57.90
14053;DHT22;7101;51.600;7.310;2022-08-03T15:45:00;33.70;59.30
14053;DHT22;7101;51.600;7.310;2022-08-03T15:47:27;33.70;59.10
14053;DHT22;7101;51.600;7.310;2022-08-03T15:49:54;33.40;58.50
14053;DHT22;7101;51.600;7.310;2022-08-03T15:52:21;33.30;58.80
14053;DHT22;7101;51.600;7.310;2022-08-03T15:54:48;33.30;58.60
14053;DHT22;7101;51.600;7.310;2022-08-03T15:57:16;33.40;59.30
14053;DHT22;7101;51.600;7.310;2022-08-03T15:59:43;33.50;58.90